createdAt,value
2019-04-22T00:02:17.492Z,13.87
2019-04-22T00:04:58.703Z,14.13
2019-04-22T00:07:41.970Z,13.40
2019-04-22T00:10:24.146Z,14.43
2019-04-22T00:12:49.969Z,14.87
2019-04-22T00:15:09.758Z,15.70
2019-04-22T00:17:55.115Z,16.30
2019-04-22T00:20:15.919Z,14.87
2019-04-22T00:22:44.653Z,13.95
2019-04-22T00:25:19.820Z,14.23
2019-04-22T00:27:50.497Z,15.17
2019-04-22T00:30:16.638Z,14.60
2019-04-22T00:32:50.049Z,14.07
2019-04-22T00:35:17.882Z,15.37
2019-04-22T00:37:57.024Z,15.23
2019-04-22T00:40:30.604Z,16.57
2019-04-22T00:42:53.610Z,13.57
2019-04-22T00:45:26.739Z,13.80
2019-04-22T00:47:50.781Z,14.60
2019-04-22T00:50:24.976Z,13.87
2019-04-22T00:53:02.513Z,17.43
2019-04-22T00:55:26.245Z,15.87
2019-04-22T00:57:56.322Z,16.13
2019-04-22T01:00:29.289Z,13.93
2019-04-22T01:03:07.384Z,13.17
2019-04-22T01:05:30.220Z,15.90
2019-04-22T01:07:56.837Z,18.93
2019-04-22T01:10:31.885Z,12.27
2019-04-22T01:12:57.235Z,18.00
2019-04-22T01:15:31.906Z,15.30
2019-04-22T01:17:57.931Z,11.87
2019-04-22T01:20:54.501Z,12.33
2019-04-22T01:22:59.050Z,14.27
2019-04-22T01:25:28.127Z,13.97
2019-04-22T01:27:54.428Z,15.03
2019-04-22T01:30:19.760Z,16.80
2019-04-22T01:32:41.866Z,19.97
2019-04-22T01:35:20.918Z,16.77
2019-04-22T01:37:54.682Z,17.47
2019-04-22T01:40:39.368Z,18.97
2019-04-22T01:43:11.761Z,17.53
2019-04-22T01:48:02.923Z,17.20
2019-04-22T01:50:32.659Z,19.20
2019-04-22T01:53:13.421Z,22.07
2019-04-22T01:55:38.846Z,14.47
2019-04-22T01:58:01.490Z,20.20
2019-04-22T02:00:39.935Z,19.27
2019-04-22T02:03:12.051Z,21.00
2019-04-22T02:05:39.411Z,22.77
2019-04-22T02:08:15.041Z,22.37
2019-04-22T02:10:50.857Z,22.43
2019-04-22T02:13:11.517Z,18.57
2019-04-22T02:15:38.024Z,22.48
2019-04-22T02:18:18.559Z,17.30
2019-04-22T02:20:43.207Z,23.07
2019-04-22T02:23:45.817Z,19.07
2019-04-22T02:26:05.983Z,21.73
2019-04-22T02:28:32.545Z,23.10
2019-04-22T02:38:51.321Z,22.60
2019-04-22T02:41:17.431Z,24.23
2019-04-22T02:43:43.584Z,22.13
2019-04-22T02:56:15.709Z,27.80
2019-04-22T02:58:47.894Z,27.53
2019-04-22T03:08:39.406Z,26.80
2019-04-22T03:21:16.050Z,24.80
2019-04-22T03:23:45.545Z,24.47
2019-04-22T03:26:18.454Z,26.30
2019-04-22T03:28:47.661Z,22.80
2019-04-22T03:31:34.441Z,25.80
2019-04-22T03:34:22.617Z,22.30
2019-04-22T03:36:57.304Z,27.13
2019-04-22T03:41:36.825Z,20.27
2019-04-22T03:44:15.080Z,23.67
2019-04-22T03:46:21.619Z,21.07
2019-04-22T03:49:12.105Z,20.65
2019-04-22T03:51:37.886Z,20.00
2019-04-22T03:59:07.591Z,29.37
2019-04-22T04:01:36.887Z,26.80
2019-04-22T04:04:09.007Z,24.90
2019-04-22T04:06:43.248Z,21.87
2019-04-22T04:09:03.386Z,24.67
2019-04-22T04:11:49.062Z,27.23
2019-04-22T04:19:08.255Z,28.27
2019-04-22T04:21:33.089Z,25.33
2019-04-22T04:24:11.706Z,22.43
2019-04-22T04:26:45.762Z,22.22
2019-04-22T04:31:40.931Z,29.93
2019-04-22T04:34:25.023Z,26.30
2019-04-22T04:36:34.125Z,30.10
2019-04-22T04:41:42.760Z,27.63
2019-04-22T04:46:47.486Z,31.07
2019-04-22T04:54:21.489Z,33.83
2019-04-22T04:56:50.345Z,31.00
2019-04-22T05:06:46.056Z,38.43
2019-04-22T05:09:21.490Z,37.63
2019-04-22T05:11:47.048Z,38.67
2019-04-22T05:14:12.786Z,36.80
2019-04-22T05:16:42.905Z,39.07
2019-04-22T05:19:11.187Z,38.33
2019-04-22T05:21:53.463Z,37.73
2019-04-22T05:24:15.234Z,38.53
2019-04-22T05:26:41.512Z,38.40
2019-04-22T05:29:05.571Z,37.10
2019-04-22T05:31:37.485Z,35.13
2019-04-22T05:34:08.214Z,39.03
2019-04-22T05:36:32.745Z,37.13
2019-04-22T05:39:09.134Z,37.80
2019-04-22T05:41:36.425Z,38.70
2019-04-22T05:44:08.654Z,39.13
2019-04-22T05:46:34.577Z,37.03
2019-04-22T05:49:09.861Z,37.97
2019-04-22T05:51:37.018Z,36.23
2019-04-22T05:54:12.450Z,36.77
2019-04-22T05:59:12.858Z,36.03
2019-04-22T06:01:48.792Z,33.85
2019-04-22T06:06:37.138Z,34.18
2019-04-22T06:09:10.892Z,35.37
2019-04-22T06:11:51.517Z,34.73
2019-04-22T06:14:07.856Z,33.33
2019-04-22T06:16:44.305Z,34.50
2019-04-22T06:21:50.004Z,34.25
2019-04-22T06:24:23.592Z,35.70
2019-04-22T06:27:01.698Z,34.98
2019-04-22T06:29:21.704Z,35.20
2019-04-22T06:32:13.266Z,33.83
2019-04-22T06:34:22.126Z,31.90
2019-04-22T06:39:28.234Z,30.67
2019-04-22T06:41:53.444Z,30.00
2019-04-22T06:44:26.534Z,28.83
2019-04-22T06:46:52.483Z,28.17
2019-04-22T06:49:27.323Z,23.70
2019-04-22T06:51:54.039Z,24.60
2019-04-22T06:54:28.262Z,23.83
2019-04-22T06:56:54.689Z,24.70
2019-04-22T06:59:26.483Z,23.23
2019-04-22T07:01:57.060Z,25.13
2019-04-22T07:04:23.141Z,23.90
2019-04-22T07:09:31.503Z,23.40
2019-04-22T07:11:58.832Z,20.60
2019-04-22T07:14:22.747Z,21.67
2019-04-22T07:16:58.871Z,20.80
2019-04-22T07:19:28.741Z,18.93
2019-04-22T07:21:57.918Z,19.65
2019-04-22T07:24:43.814Z,17.67
2019-04-22T07:26:57.594Z,16.63
2019-04-22T07:29:29.420Z,17.17
2019-04-22T07:32:03.283Z,17.77
2019-04-22T07:34:33.339Z,17.03
2019-04-22T07:39:29.702Z,15.70
2019-04-22T07:41:58.605Z,15.60
2019-04-22T07:44:36.679Z,16.00
2019-04-22T07:47:07.796Z,15.83
2019-04-22T07:49:39.444Z,15.60
2019-04-22T07:51:55.728Z,15.90
2019-04-22T07:54:32.694Z,15.33
2019-04-22T07:57:10.208Z,15.33
2019-04-22T07:59:35.105Z,15.08
2019-04-22T08:02:04.759Z,15.60
2019-04-22T08:04:49.405Z,14.90
2019-04-22T08:07:05.410Z,15.00
2019-04-22T08:09:41.798Z,16.47
2019-04-22T08:11:59.366Z,14.40
2019-04-22T08:14:36.229Z,15.47
2019-04-22T08:17:19.287Z,16.27
2019-04-22T08:19:36.986Z,14.87
2019-04-22T08:22:02.887Z,15.15
2019-04-22T08:24:42.011Z,15.20
2019-04-22T08:27:04.510Z,14.97
2019-04-22T08:32:05.172Z,14.03
2019-04-22T08:34:47.145Z,14.47
2019-04-22T08:37:35.713Z,14.23
2019-04-22T08:39:38.644Z,14.20
2019-04-22T08:42:09.917Z,14.10
2019-04-22T08:45:38.506Z,14.73
2019-04-22T08:47:17.770Z,13.80
2019-04-22T08:49:42.525Z,14.23
2019-04-22T08:52:08.731Z,13.83
2019-04-22T08:54:38.506Z,13.65
2019-04-22T08:57:15.972Z,13.97
2019-04-22T08:59:37.409Z,14.50
2019-04-22T09:02:18.499Z,13.33
2019-04-22T09:04:45.027Z,14.03
2019-04-22T09:07:21.195Z,14.23
2019-04-22T09:09:44.563Z,14.23
2019-04-22T09:14:45.810Z,14.10
2019-04-22T09:17:21.364Z,14.03
2019-04-22T09:19:55.906Z,13.63
2019-04-22T09:22:22.049Z,13.93
2019-04-22T09:24:51.792Z,13.63
2019-04-22T09:27:37.100Z,12.23
2019-04-22T09:29:56.472Z,13.23
2019-04-22T09:32:29.215Z,13.77
2019-04-22T09:34:53.247Z,12.70
2019-04-22T09:37:30.387Z,11.80
2019-04-22T09:39:59.906Z,12.87
2019-04-22T09:42:30.050Z,12.33
2019-04-22T09:44:55.499Z,11.67
2019-04-22T09:47:30.688Z,11.37
2019-04-22T09:52:21.290Z,12.27
2019-04-22T09:54:59.646Z,11.10
2019-04-22T09:57:29.491Z,12.07
2019-04-22T10:00:04.384Z,10.30
2019-04-22T10:02:33.699Z,10.67
2019-04-22T10:05:00.531Z,9.87
2019-04-22T10:10:03.414Z,7.40
2019-04-22T10:15:00.393Z,6.50
2019-04-22T10:17:32.233Z,5.70
2019-04-22T10:20:07.193Z,5.53
2019-04-22T10:22:39.953Z,5.70
2019-04-22T10:25:04.882Z,4.40
2019-04-22T10:27:36.514Z,5.00
2019-04-22T10:30:16.872Z,4.60
2019-04-22T10:32:38.070Z,4.97
2019-04-22T10:34:48.618Z,4.90
2019-04-22T10:37:16.982Z,4.57
2019-04-22T10:39:53.282Z,4.80
2019-04-22T10:42:15.295Z,5.03
2019-04-22T10:44:45.232Z,5.50
2019-04-22T10:47:14.094Z,5.22
2019-04-22T10:49:42.650Z,4.80
2019-04-22T10:52:11.087Z,5.13
2019-04-22T10:54:39.579Z,5.20
2019-04-22T10:57:08.647Z,5.62
2019-04-22T10:59:38.530Z,5.77
2019-04-22T11:02:07.537Z,5.27
2019-04-22T11:04:36.435Z,5.10
2019-04-22T11:07:07.704Z,4.97
2019-04-22T11:09:47.670Z,5.70
2019-04-22T11:12:13.645Z,5.30
2019-04-22T11:14:41.164Z,4.90
2019-04-22T11:17:09.018Z,5.20
2019-04-22T11:19:37.530Z,5.20
2019-04-22T11:22:16.206Z,5.57
2019-04-22T11:24:37.026Z,5.20
2019-04-22T11:27:07.007Z,5.40
2019-04-22T11:29:37.383Z,4.80
2019-04-22T11:32:06.497Z,5.97
2019-04-22T11:34:35.425Z,5.50
2019-04-22T11:37:05.304Z,5.47
2019-04-22T11:39:36.660Z,5.37
2019-04-22T11:42:10.353Z,4.80
2019-04-22T11:44:45.397Z,5.00
2019-04-22T11:47:15.167Z,4.87
2019-04-22T11:49:43.998Z,4.93
2019-04-22T11:52:14.803Z,5.00
2019-04-22T11:54:43.494Z,5.27
2019-04-22T11:57:12.880Z,5.15
2019-04-22T11:59:42.742Z,5.40
2019-04-22T12:02:14.416Z,5.60
2019-04-22T12:04:41.888Z,5.70
2019-04-22T12:07:10.900Z,4.70
2019-04-22T12:09:39.628Z,4.87
2019-04-22T12:12:09.641Z,5.13
2019-04-22T12:14:38.344Z,5.13
2019-04-22T12:17:07.697Z,5.43
2019-04-22T12:19:37.810Z,5.37
2019-04-22T12:22:07.151Z,6.10
2019-04-22T12:24:36.470Z,5.77
2019-04-22T12:27:06.430Z,5.93
2019-04-22T12:29:35.133Z,5.77
2019-04-22T12:32:05.303Z,5.67
2019-04-22T12:34:35.103Z,5.90
2019-04-22T12:37:04.618Z,5.67
2019-04-22T12:39:33.694Z,6.30
2019-04-22T12:42:02.716Z,6.20
2019-04-22T12:44:32.619Z,6.03
2019-04-22T12:47:02.646Z,5.80
2019-04-22T12:49:32.250Z,6.23
2019-04-22T12:52:03.016Z,6.17
2019-04-22T12:54:32.953Z,6.67
2019-04-22T12:57:01.824Z,6.87
2019-04-22T12:59:31.734Z,6.60
2019-04-22T13:02:00.716Z,7.70
2019-04-22T13:04:30.119Z,7.67
2019-04-22T13:06:59.712Z,8.83
2019-04-22T13:09:29.432Z,8.20
2019-04-22T13:11:59.235Z,7.70
2019-04-22T13:14:27.799Z,8.03
2019-04-22T13:16:57.610Z,7.45
2019-04-22T13:19:28.055Z,7.97
2019-04-22T13:21:56.635Z,7.20
2019-04-22T13:24:25.982Z,7.10
2019-04-22T13:26:55.052Z,7.27
2019-04-22T13:29:23.589Z,6.77
2019-04-22T13:31:53.123Z,6.37
2019-04-22T13:34:30.415Z,6.63
2019-04-22T13:36:52.889Z,7.50
2019-04-22T13:39:22.798Z,6.97
2019-04-22T13:41:57.725Z,7.57
2019-04-22T13:44:22.976Z,7.40
2019-04-22T13:47:11.526Z,6.60
2019-04-22T13:50:08.135Z,5.70
2019-04-22T13:52:32.008Z,5.03
2019-04-22T13:55:01.749Z,7.30
2019-04-22T13:57:14.639Z,4.93
2019-04-22T13:59:31.247Z,4.15
2019-04-22T14:02:12.849Z,4.37
2019-04-22T14:04:43.007Z,3.97
2019-04-22T14:07:12.670Z,4.60
2019-04-22T14:09:42.308Z,4.13
2019-04-22T14:12:13.647Z,9.70
2019-04-22T14:14:42.846Z,5.57
2019-04-22T14:17:11.447Z,4.77
2019-04-22T14:19:40.025Z,4.67
2019-04-22T14:22:09.613Z,4.97
2019-04-22T14:24:38.628Z,4.13
2019-04-22T14:27:21.937Z,5.20
2019-04-22T14:29:37.792Z,5.40
2019-04-22T14:32:14.615Z,6.10
2019-04-22T14:34:36.488Z,5.17
2019-04-22T14:37:05.713Z,5.17
2019-04-22T14:39:35.668Z,4.97
2019-04-22T14:42:24.302Z,4.50
2019-04-22T14:47:39.766Z,4.67
2019-04-22T14:50:02.720Z,5.43
2019-04-22T14:52:30.855Z,5.00
2019-04-22T14:54:49.252Z,5.47
2019-04-22T14:57:07.402Z,10.33
2019-04-22T14:59:35.910Z,6.70
2019-04-22T15:02:05.714Z,6.60
2019-04-22T15:04:35.078Z,5.77
2019-04-22T15:07:03.583Z,5.40
2019-04-22T15:09:34.204Z,6.23
2019-04-22T15:12:11.127Z,6.00
2019-04-22T15:14:33.228Z,5.93
2019-04-22T15:17:22.863Z,6.27
2019-04-22T15:19:56.194Z,5.97
2019-04-22T15:22:24.620Z,6.10
2019-04-22T15:24:54.173Z,5.10
2019-04-22T15:27:24.658Z,5.10
2019-04-22T15:29:55.465Z,5.70
2019-04-22T15:32:23.499Z,5.07
2019-04-22T15:34:53.334Z,5.33
2019-04-22T15:37:22.411Z,5.13
2019-04-22T15:39:52.315Z,5.17
2019-04-22T15:42:28.186Z,4.87
2019-04-22T15:44:51.655Z,4.80
2019-04-22T15:47:20.692Z,4.83
2019-04-22T15:49:49.959Z,5.50
2019-04-22T15:52:18.932Z,4.80
2019-04-22T15:54:51.712Z,5.37
2019-04-22T15:57:17.724Z,5.30
2019-04-22T16:00:05.352Z,5.87
2019-04-22T16:02:16.564Z,5.63
2019-04-22T16:04:46.356Z,5.50
2019-04-22T16:07:15.103Z,5.15
2019-04-22T16:09:43.640Z,5.27
2019-04-22T16:12:21.575Z,5.27
2019-04-22T16:14:47.845Z,5.30
2019-04-22T16:17:12.767Z,6.40
2019-04-22T16:19:41.589Z,4.80
2019-04-22T16:22:16.832Z,5.63
2019-04-22T16:24:50.117Z,5.13
2019-04-22T16:27:20.787Z,5.80
2019-04-22T16:29:49.808Z,6.13
2019-04-22T16:32:19.130Z,5.60
2019-04-22T16:34:47.808Z,5.20
2019-04-22T16:37:16.744Z,6.33
2019-04-22T16:39:48.153Z,7.60
2019-04-22T16:42:27.819Z,5.23
2019-04-22T16:44:47.399Z,4.83
2019-04-22T16:47:17.477Z,4.60
2019-04-22T16:49:46.078Z,4.23
2019-04-22T16:52:14.526Z,4.45
2019-04-22T16:54:44.339Z,3.97
2019-04-22T16:57:13.054Z,3.93
2019-04-22T16:59:42.733Z,4.33
2019-04-22T17:02:14.887Z,3.87
2019-04-22T17:04:46.575Z,3.90
2019-04-22T17:07:16.148Z,3.93
2019-04-22T17:09:45.828Z,4.57
2019-04-22T17:12:14.438Z,4.40
2019-04-22T17:14:50.534Z,4.37
2019-04-22T17:17:14.763Z,3.90
2019-04-22T17:19:45.061Z,3.33
2019-04-22T17:22:13.662Z,3.70
2019-04-22T17:24:43.625Z,3.63
2019-04-22T17:27:12.741Z,3.62
2019-04-22T17:29:41.410Z,3.30
2019-04-22T17:32:14.001Z,3.80
2019-04-22T17:34:41.329Z,3.40
2019-04-22T17:37:17.210Z,3.70
2019-04-22T17:39:49.180Z,3.87
2019-04-22T17:42:30.964Z,3.40
2019-04-22T17:45:24.044Z,3.57
2019-04-22T17:48:09.823Z,3.53
2019-04-22T17:50:39.988Z,3.40
2019-04-22T17:53:13.696Z,3.37
2019-04-22T17:55:40.392Z,3.15
2019-04-22T17:58:14.822Z,3.40
2019-04-22T18:00:43.396Z,3.33
2019-04-22T18:03:03.112Z,3.07
2019-04-22T18:05:32.187Z,3.30
2019-04-22T18:08:12.670Z,3.27
2019-04-22T18:10:40.554Z,3.67
2019-04-22T18:13:20.591Z,3.70
2019-04-22T18:15:43.622Z,2.90
2019-04-22T18:18:21.574Z,3.07
2019-04-22T18:20:39.066Z,2.60
2019-04-22T18:23:02.661Z,3.03
2019-04-22T18:25:45.171Z,2.50
2019-04-22T18:28:17.649Z,3.20
2019-04-22T18:30:37.434Z,2.50
2019-04-22T18:33:12.665Z,2.90
2019-04-22T18:35:42.166Z,2.73
2019-04-22T18:40:47.073Z,2.83
2019-04-22T18:43:16.944Z,2.67
2019-04-22T18:48:08.785Z,2.60
2019-04-22T18:51:11.916Z,3.20
2019-04-22T18:53:54.059Z,2.40
2019-04-22T18:56:25.471Z,2.40
2019-04-22T18:58:43.725Z,2.47
2019-04-22T19:01:08.081Z,2.75
2019-04-22T19:03:49.752Z,2.43
2019-04-22T19:06:34.417Z,2.40
2019-04-22T19:09:05.322Z,2.52
2019-04-22T19:11:26.718Z,2.20
2019-04-22T19:14:07.710Z,2.33
2019-04-22T19:19:22.508Z,2.30
2019-04-22T19:21:26.025Z,2.50
2019-04-22T19:24:01.434Z,2.30
2019-04-22T19:26:41.145Z,2.40
2019-04-22T19:29:00.779Z,2.30
2019-04-22T19:31:28.674Z,2.62
2019-04-22T19:34:00.783Z,2.80
2019-04-22T19:36:35.829Z,2.17
2019-04-22T19:38:58.952Z,2.30
2019-04-22T19:41:29.452Z,2.20
2019-04-22T19:44:03.869Z,2.47
2019-04-22T19:46:27.009Z,2.63
2019-04-22T19:49:03.795Z,2.40
2019-04-22T19:51:36.920Z,2.17
2019-04-22T19:54:01.372Z,2.30
2019-04-22T19:56:22.970Z,2.60
2019-04-22T19:58:57.383Z,2.73
2019-04-22T20:01:40.093Z,2.30
2019-04-22T20:04:23.005Z,3.07
2019-04-22T20:06:47.573Z,3.33
2019-04-22T20:09:22.509Z,3.13
2019-04-22T20:11:43.690Z,2.77
2019-04-22T20:14:16.833Z,2.80
2019-04-22T20:16:44.555Z,2.90
2019-04-22T20:19:24.898Z,2.37
2019-04-22T20:21:53.420Z,2.67
2019-04-22T20:24:10.276Z,2.63
2019-04-22T20:26:56.178Z,2.67
2019-04-22T20:29:29.076Z,3.20
2019-04-22T20:31:54.657Z,2.73
2019-04-22T20:34:23.901Z,2.63
2019-04-22T20:37:05.930Z,2.87
2019-04-22T20:39:27.107Z,2.87
2019-04-22T20:41:57.426Z,2.53
2019-04-22T20:44:29.184Z,2.87
2019-04-22T20:46:49.075Z,2.87
2019-04-22T20:49:25.612Z,3.00
2019-04-22T20:52:04.772Z,2.10
2019-04-22T20:54:22.906Z,2.50
2019-04-22T20:56:49.687Z,2.60
2019-04-22T20:59:23.987Z,2.73
2019-04-22T21:01:55.188Z,2.20
2019-04-22T21:04:16.850Z,2.33
2019-04-22T21:06:51.245Z,2.40
2019-04-22T21:09:32.256Z,2.33
2019-04-22T21:11:52.974Z,2.70
2019-04-22T21:14:23.471Z,2.50
2019-04-22T21:17:02.175Z,2.30
2019-04-22T21:19:35.413Z,2.20
2019-04-22T21:22:06.549Z,2.03
2019-04-22T21:24:29.700Z,1.97
2019-04-22T21:26:56.911Z,2.30
2019-04-22T21:29:26.791Z,2.20
2019-04-22T21:32:01.590Z,2.30
2019-04-22T21:34:26.369Z,2.20
2019-04-22T21:37:12.225Z,1.97
2019-04-22T21:39:26.351Z,2.13
2019-04-22T21:42:03.280Z,2.00
2019-04-22T21:44:32.616Z,1.90
2019-04-22T21:47:10.510Z,2.10
2019-04-22T21:49:37.225Z,2.23
2019-04-22T21:52:00.218Z,2.80
2019-04-22T21:54:34.338Z,1.83
2019-04-22T21:59:53.266Z,2.13
2019-04-22T22:02:28.236Z,1.83
2019-04-22T22:04:49.072Z,1.77
2019-04-22T22:07:09.861Z,1.90
2019-04-22T22:09:53.918Z,2.17
2019-04-22T22:12:26.601Z,2.73
2019-04-22T22:14:55.755Z,1.98
2019-04-22T22:17:22.679Z,2.00
2019-04-22T22:19:54.509Z,1.93
2019-04-22T22:22:42.231Z,1.87
2019-04-22T22:24:56.465Z,1.90
2019-04-22T22:27:25.554Z,2.00
2019-04-22T22:30:06.729Z,1.80
2019-04-22T22:32:32.437Z,1.80
2019-04-22T22:34:57.306Z,1.77
2019-04-22T22:37:17.020Z,1.83
2019-04-22T22:39:48.168Z,1.90
2019-04-22T22:42:10.888Z,2.10
2019-04-22T22:44:43.257Z,2.00
2019-04-22T22:47:25.853Z,1.83
2019-04-22T22:49:56.560Z,2.03
2019-04-22T22:55:00.476Z,1.77
2019-04-22T22:57:33.292Z,1.60
2019-04-22T23:00:01.399Z,1.90
2019-04-22T23:02:34.238Z,1.70
2019-04-22T23:05:06.176Z,2.00
2019-04-22T23:07:36.884Z,1.63
2019-04-22T23:10:02.002Z,1.87
2019-04-22T23:12:40.532Z,1.77
2019-04-22T23:14:59.065Z,1.90
2019-04-22T23:17:18.111Z,1.92
2019-04-22T23:19:48.045Z,1.77
2019-04-22T23:22:17.914Z,1.82
2019-04-22T23:25:00.644Z,1.70
2019-04-22T23:27:51.426Z,1.77
2019-04-22T23:30:13.158Z,1.73
2019-04-22T23:32:42.656Z,2.00
2019-04-22T23:35:39.655Z,1.50
2019-04-22T23:38:13.766Z,1.90
2019-04-22T23:40:42.810Z,1.77
2019-04-22T23:43:23.669Z,1.80
2019-04-22T23:45:44.875Z,1.53
2019-04-22T23:48:11.688Z,1.40
2019-04-22T23:50:54.131Z,1.90
2019-04-22T23:53:25.343Z,1.53
2019-04-22T23:55:53.082Z,1.57
2019-04-22T23:58:40.000Z,1.50
